createdAt,value
2022-09-23T00:02:09.814Z,101179.38
2022-09-23T00:07:09.187Z,101210.84
2022-09-23T00:12:14.991Z,101172.19
2022-09-23T00:17:14.385Z,101166.81
2022-09-23T00:22:16.875Z,101193.38
2022-09-23T00:27:16.379Z,101197.69
2022-09-23T00:32:18.726Z,101201.88
2022-09-23T00:37:25.073Z,101226.13
2022-09-23T00:42:35.135Z,101189.47
2022-09-23T00:47:59.236Z,101223.66
2022-09-23T00:58:44.957Z,101239.88
2022-09-23T01:03:50.252Z,101216.59
2022-09-23T01:08:50.382Z,101265.41
2022-09-23T01:14:16.969Z,101294.19
2022-09-23T01:19:37.078Z,101303.69
2022-09-23T01:24:59.747Z,101304.75
2022-09-23T01:30:07.047Z,101316.09
2022-09-23T01:35:04.652Z,101304.38
2022-09-23T01:40:33.350Z,101311.66
2022-09-23T01:45:35.864Z,101294.88
2022-09-23T01:51:04.196Z,101286.00
2022-09-23T01:56:09.661Z,101289.78
2022-09-23T02:01:21.955Z,101291.94
2022-09-23T02:06:30.505Z,101291.28
2022-09-23T02:11:32.370Z,101304.28
2022-09-23T02:16:40.304Z,101292.44
2022-09-23T02:21:47.491Z,101279.28
2022-09-23T02:26:51.425Z,101310.84
2022-09-23T02:32:05.220Z,101295.69
2022-09-23T02:37:28.945Z,101285.75
2022-09-23T02:42:52.197Z,101280.63
2022-09-23T02:47:57.759Z,101300.00
2022-09-23T02:52:56.449Z,101282.91
2022-09-23T02:57:55.508Z,101281.09
2022-09-23T03:03:33.528Z,101317.91
2022-09-23T03:08:53.914Z,101307.41
2022-09-23T03:14:08.032Z,101316.66
2022-09-23T03:19:45.431Z,101333.72
2022-09-23T03:24:49.721Z,101290.16
2022-09-23T03:29:56.177Z,101293.81
2022-09-23T03:34:56.761Z,101302.09
2022-09-23T03:40:12.040Z,101326.50
2022-09-23T03:45:13.184Z,101317.06
2022-09-23T03:50:17.689Z,101313.63
2022-09-23T03:55:17.283Z,101289.94
2022-09-23T04:00:15.487Z,101318.59
2022-09-23T04:05:15.183Z,101320.84
2022-09-23T04:10:17.032Z,101314.69
2022-09-23T04:15:18.808Z,101321.19
2022-09-23T04:20:19.182Z,101315.34
2022-09-23T04:25:21.383Z,101314.88
2022-09-23T04:30:24.923Z,101325.78
2022-09-23T04:35:23.309Z,101321.50
2022-09-23T04:40:25.054Z,101280.59
2022-09-23T04:45:24.041Z,101294.28
2022-09-23T04:50:28.376Z,101308.53
2022-09-23T04:55:27.146Z,101332.19
2022-09-23T05:00:28.851Z,101358.47
2022-09-23T05:05:29.898Z,101312.22
2022-09-23T05:10:28.437Z,101334.72
2022-09-23T05:15:27.965Z,101352.41
2022-09-23T05:20:30.397Z,101353.03
2022-09-23T05:25:36.288Z,101331.63
2022-09-23T05:30:39.537Z,101352.22
2022-09-23T05:35:51.524Z,101361.13
2022-09-23T05:40:57.968Z,101371.78
2022-09-23T05:46:14.407Z,101329.13
2022-09-23T05:51:20.330Z,101339.03
2022-09-23T05:56:19.900Z,101334.53
2022-09-23T06:01:21.324Z,101381.59
2022-09-23T06:06:21.697Z,101328.19
2022-09-23T06:11:23.227Z,101379.53
2022-09-23T06:16:20.928Z,101374.63
2022-09-23T06:21:20.890Z,101362.34
2022-09-23T06:26:21.252Z,101355.25
2022-09-23T06:31:21.885Z,101395.19
2022-09-23T06:36:38.851Z,101372.84
2022-09-23T06:41:44.852Z,101382.56
2022-09-23T06:46:46.888Z,101417.00
2022-09-23T06:51:45.392Z,101403.78
2022-09-23T06:56:47.743Z,101394.38
2022-09-23T07:01:50.801Z,101417.72
2022-09-23T07:06:49.162Z,101391.00
2022-09-23T07:11:50.711Z,101412.66
2022-09-23T07:16:54.110Z,101442.44
2022-09-23T07:21:52.571Z,101418.59
2022-09-23T07:26:58.307Z,101436.28
2022-09-23T07:32:11.046Z,101412.00
2022-09-23T07:37:23.605Z,101464.38
2022-09-23T07:42:24.775Z,101441.81
2022-09-23T07:47:28.091Z,101420.03
2022-09-23T07:52:28.853Z,101437.94
2022-09-23T07:57:31.027Z,101403.72
2022-09-23T08:02:31.706Z,101408.41
2022-09-23T08:07:34.740Z,101403.56
2022-09-23T08:12:37.337Z,101431.97
2022-09-23T08:17:39.038Z,101425.16
2022-09-23T08:22:42.941Z,101422.06
2022-09-23T08:27:50.468Z,101403.66
2022-09-23T08:32:54.219Z,101441.50
2022-09-23T08:37:53.839Z,101403.13
2022-09-23T08:42:57.260Z,101425.94
2022-09-23T08:48:00.959Z,101424.91
2022-09-23T08:53:03.772Z,101437.84
2022-09-23T08:58:24.980Z,101411.81
2022-09-23T09:03:26.936Z,101425.41
2022-09-23T09:08:40.837Z,101433.56
2022-09-23T09:14:44.277Z,101378.06
2022-09-23T09:20:27.391Z,101443.19
2022-09-23T09:25:53.014Z,101446.84
2022-09-23T09:30:54.701Z,101434.72
2022-09-23T09:36:32.981Z,101390.00
2022-09-23T09:41:34.207Z,101453.06
2022-09-23T09:47:13.140Z,101464.09
2022-09-23T09:52:12.365Z,101463.78
2022-09-23T09:57:25.410Z,101451.59
2022-09-23T10:02:32.542Z,101420.75
2022-09-23T10:07:36.377Z,101461.22
2022-09-23T10:12:59.502Z,101432.53
2022-09-23T10:18:02.342Z,101417.16
2022-09-23T10:23:06.788Z,101439.28
2022-09-23T10:28:31.402Z,101421.56
2022-09-23T10:33:32.677Z,101433.22
2022-09-23T10:38:34.849Z,101414.44
2022-09-23T10:44:07.967Z,101426.41
2022-09-23T10:49:44.341Z,101414.44
2022-09-23T10:55:19.801Z,101409.06
2022-09-23T11:00:42.894Z,101403.78
2022-09-23T11:06:01.901Z,101355.47
2022-09-23T11:11:26.893Z,101387.66
2022-09-23T11:16:53.123Z,101377.38
2022-09-23T11:22:05.444Z,101359.81
2022-09-23T11:27:20.511Z,101332.28
2022-09-23T11:38:52.582Z,101312.88
2022-09-23T11:44:44.134Z,101314.63
2022-09-23T11:50:12.977Z,101297.75
2022-09-23T11:56:00.783Z,101295.00
2022-09-23T12:01:35.325Z,101309.31
2022-09-23T12:07:37.315Z,101269.63
2022-09-23T12:13:41.800Z,101299.84
2022-09-23T12:25:38.059Z,101294.19
2022-09-23T12:30:39.602Z,101276.31
2022-09-23T12:35:51.201Z,101259.13
2022-09-23T12:40:57.626Z,101277.03
2022-09-23T12:46:37.270Z,101248.38
2022-09-23T12:52:19.380Z,101253.88
2022-09-23T12:57:40.478Z,101269.34
2022-09-23T13:03:54.923Z,101265.50
2022-09-23T13:08:56.696Z,101245.56
2022-09-23T13:14:11.754Z,101238.44
2022-09-23T13:19:42.727Z,101268.88
2022-09-23T13:24:48.590Z,101245.84
2022-09-23T13:30:13.185Z,101265.19
2022-09-23T13:35:34.275Z,101265.91
2022-09-23T13:41:04.752Z,101226.63
2022-09-23T13:46:50.771Z,101245.94
2022-09-23T13:53:13.762Z,101214.84
2022-09-23T13:59:11.914Z,101230.53
2022-09-23T14:03:40.533Z,101195.59
2022-09-23T14:08:42.345Z,101215.34
2022-09-23T14:14:28.841Z,101203.66
2022-09-23T14:20:17.654Z,101181.56
2022-09-23T14:31:35.383Z,101207.13
2022-09-23T14:43:32.765Z,101221.69
2022-09-23T14:48:40.039Z,101247.69
2022-09-23T14:53:44.701Z,101230.53
2022-09-23T14:59:09.166Z,101211.81
2022-09-23T15:04:36.497Z,101227.31
2022-09-23T15:09:39.982Z,101235.19
2022-09-23T15:15:06.514Z,101274.09
2022-09-23T15:20:11.814Z,101240.91
2022-09-23T15:25:15.972Z,101225.75
2022-09-23T15:30:36.118Z,101261.00
2022-09-23T15:46:52.140Z,101221.59
2022-09-23T15:51:52.186Z,101214.09
2022-09-23T15:56:54.157Z,101252.16
2022-09-23T16:02:12.597Z,101232.50
2022-09-23T16:07:17.744Z,101264.41
2022-09-23T16:12:22.619Z,101257.13
2022-09-23T16:17:29.489Z,101252.94
2022-09-23T16:22:33.126Z,101257.94
2022-09-23T16:27:34.760Z,101262.38
2022-09-23T16:32:46.123Z,101289.59
2022-09-23T16:37:58.056Z,101292.88
2022-09-23T16:43:14.495Z,101261.94
2022-09-23T16:48:13.773Z,101249.34
2022-09-23T16:53:19.974Z,101255.88
2022-09-23T16:59:21.719Z,101270.91
2022-09-23T17:05:04.366Z,101240.69
2022-09-23T17:15:35.666Z,101283.19
2022-09-23T17:21:03.430Z,101284.19
2022-09-23T17:26:13.706Z,101296.00
2022-09-23T17:31:14.890Z,101291.69
2022-09-23T17:36:15.172Z,101289.16
2022-09-23T17:41:42.562Z,101309.44
2022-09-23T17:52:34.776Z,101310.41
2022-09-23T17:57:39.279Z,101269.25
2022-09-23T18:03:03.635Z,101289.97
2022-09-23T18:08:33.190Z,101333.69
2022-09-23T18:26:00.219Z,101340.69
2022-09-23T18:31:46.676Z,101319.81
2022-09-23T18:37:02.048Z,101322.97
2022-09-23T18:42:24.417Z,101326.38
2022-09-23T18:53:17.454Z,101315.13
2022-09-23T18:58:26.458Z,101274.06
2022-09-23T19:03:48.005Z,101285.22
2022-09-23T19:09:05.459Z,101307.78
2022-09-23T19:14:11.349Z,101313.53
2022-09-23T19:19:55.608Z,101333.31
2022-09-23T19:31:29.028Z,101344.03
2022-09-23T19:36:34.704Z,101313.56
2022-09-23T19:41:35.598Z,101309.13
2022-09-23T19:46:37.575Z,101317.00
2022-09-23T19:51:39.171Z,101312.91
2022-09-23T19:56:47.229Z,101312.09
2022-09-23T20:02:09.622Z,101316.00
2022-09-23T20:13:27.995Z,101291.28
2022-09-23T20:18:26.768Z,101344.00
2022-09-23T20:23:32.227Z,101299.66
2022-09-23T20:28:33.953Z,101301.44
2022-09-23T20:33:31.315Z,101325.66
2022-09-23T20:38:33.765Z,101293.25
2022-09-23T20:43:34.561Z,101324.38
2022-09-23T20:48:32.395Z,101308.47
2022-09-23T20:53:30.691Z,101330.22
2022-09-23T20:58:30.365Z,101290.22
2022-09-23T21:03:29.622Z,101314.75
2022-09-23T21:08:31.271Z,101315.09
2022-09-23T21:13:31.658Z,101333.63
2022-09-23T21:18:32.585Z,101317.84
2022-09-23T21:23:35.461Z,101325.22
2022-09-23T21:28:37.905Z,101284.16
2022-09-23T21:33:37.607Z,101305.75
2022-09-23T21:38:39.389Z,101283.97
2022-09-23T21:43:38.701Z,101308.34
2022-09-23T21:48:42.015Z,101324.31
2022-09-23T21:53:42.579Z,101321.69
2022-09-23T21:58:43.541Z,101325.16
2022-09-23T22:03:46.874Z,101306.78
2022-09-23T22:08:49.945Z,101273.06
2022-09-23T22:13:48.455Z,101319.47
2022-09-23T22:18:46.082Z,101276.25
2022-09-23T22:23:49.961Z,101329.09
2022-09-23T22:29:07.545Z,101341.16
2022-09-23T22:34:07.108Z,101333.47
2022-09-23T22:39:07.031Z,101267.81
2022-09-23T22:44:05.588Z,101302.66
2022-09-23T22:49:09.230Z,101293.72
2022-09-23T22:54:10.458Z,101292.31
2022-09-23T22:59:12.750Z,101328.13
2022-09-23T23:04:20.907Z,101326.41
2022-09-23T23:09:24.519Z,101302.50
2022-09-23T23:14:24.521Z,101312.56
2022-09-23T23:19:24.828Z,101302.28
2022-09-23T23:24:26.175Z,101311.47
2022-09-23T23:29:26.293Z,101304.66
2022-09-23T23:34:30.592Z,101354.25
2022-09-23T23:39:28.820Z,101310.38
2022-09-23T23:44:31.225Z,101313.28
2022-09-23T23:49:34.132Z,101309.44
2022-09-23T23:54:33.156Z,101320.31
2022-09-23T23:59:34.498Z,101299.25
